sensor_id;sensor_type;location;lat;lon;timestamp;temperature;humidity
5960;DHT22;3006;50.956;7.002;2023-05-07T00:01:59;16.40;99.90
5960;DHT22;3006;50.956;7.002;2023-05-07T00:04:27;16.30;99.90
5960;DHT22;3006;50.956;7.002;2023-05-07T00:06:55;16.40;99.90
5960;DHT22;3006;50.956;7.002;2023-05-07T00:09:23;16.30;99.90
5960;DHT22;3006;50.956;7.002;2023-05-07T00:11:52;16.30;99.90
5960;DHT22;3006;50.956;7.002;2023-05-07T00:14:21;16.30;99.90
5960;DHT22;3006;50.956;7.002;2023-05-07T00:16:49;16.30;99.90
5960;DHT22;3006;50.956;7.002;2023-05-07T00:19:17;16.30;99.90
5960;DHT22;3006;50.956;7.002;2023-05-07T00:21:45;16.20;99.90
5960;DHT22;3006;50.956;7.002;2023-05-07T00:24:13;16.20;99.90
5960;DHT22;3006;50.956;7.002;2023-05-07T00:26:41;16.30;99.90
5960;DHT22;3006;50.956;7.002;2023-05-07T00:29:09;16.30;99.90
5960;DHT22;3006;50.956;7.002;2023-05-07T00:31:39;16.30;99.90
5960;DHT22;3006;50.956;7.002;2023-05-07T00:34:07;16.30;99.90
5960;DHT22;3006;50.956;7.002;2023-05-07T00:36:35;16.30;99.90
5960;DHT22;3006;50.956;7.002;2023-05-07T00:39:03;16.20;99.90
5960;DHT22;3006;50.956;7.002;2023-05-07T00:41:31;16.20;99.90
5960;DHT22;3006;50.956;7.002;2023-05-07T00:43:59;16.20;99.90
5960;DHT22;3006;50.956;7.002;2023-05-07T00:46:30;16.10;99.90
5960;DHT22;3006;50.956;7.002;2023-05-07T00:49:00;16.10;99.90
5960;DHT22;3006;50.956;7.002;2023-05-07T00:51:28;16.20;99.90
5960;DHT22;3006;50.956;7.002;2023-05-07T00:53:56;16.20;99.90
5960;DHT22;3006;50.956;7.002;2023-05-07T00:56:24;16.20;99.90
5960;DHT22;3006;50.956;7.002;2023-05-07T00:58:53;16.10;99.90
5960;DHT22;3006;50.956;7.002;2023-05-07T01:01:21;16.20;99.90
5960;DHT22;3006;50.956;7.002;2023-05-07T01:03:49;16.10;99.90
5960;DHT22;3006;50.956;7.002;2023-05-07T01:06:20;16.10;99.90
5960;DHT22;3006;50.956;7.002;2023-05-07T01:08:50;16.10;99.90
5960;DHT22;3006;50.956;7.002;2023-05-07T01:11:19;16.10;99.90
5960;DHT22;3006;50.956;7.002;2023-05-07T01:13:49;16.10;99.90
5960;DHT22;3006;50.956;7.002;2023-05-07T01:16:17;16.10;99.90
5960;DHT22;3006;50.956;7.002;2023-05-07T01:18:45;16.10;99.90
5960;DHT22;3006;50.956;7.002;2023-05-07T01:21:16;16.10;99.90
5960;DHT22;3006;50.956;7.002;2023-05-07T01:23:47;16.10;99.90
5960;DHT22;3006;50.956;7.002;2023-05-07T01:26:15;16.10;99.90
5960;DHT22;3006;50.956;7.002;2023-05-07T01:28:46;16.10;99.90
5960;DHT22;3006;50.956;7.002;2023-05-07T01:31:15;16.10;99.90
5960;DHT22;3006;50.956;7.002;2023-05-07T01:33:45;16.10;99.90
5960;DHT22;3006;50.956;7.002;2023-05-07T01:36:14;16.10;99.90
5960;DHT22;3006;50.956;7.002;2023-05-07T01:38:45;16.10;99.90
5960;DHT22;3006;50.956;7.002;2023-05-07T01:41:14;16.10;99.90
5960;DHT22;3006;50.956;7.002;2023-05-07T01:43:42;16.20;99.90
5960;DHT22;3006;50.956;7.002;2023-05-07T01:46:11;16.20;99.90
5960;DHT22;3006;50.956;7.002;2023-05-07T01:48:40;16.10;99.90
5960;DHT22;3006;50.956;7.002;2023-05-07T01:51:12;16.10;99.90
5960;DHT22;3006;50.956;7.002;2023-05-07T01:53:40;16.10;99.90
5960;DHT22;3006;50.956;7.002;2023-05-07T01:56:11;16.20;99.90
5960;DHT22;3006;50.956;7.002;2023-05-07T01:58:41;16.20;99.90
5960;DHT22;3006;50.956;7.002;2023-05-07T02:01:09;16.10;99.90
5960;DHT22;3006;50.956;7.002;2023-05-07T02:03:37;16.10;99.90
5960;DHT22;3006;50.956;7.002;2023-05-07T02:06:12;16.10;99.90
5960;DHT22;3006;50.956;7.002;2023-05-07T02:08:40;16.10;99.90
5960;DHT22;3006;50.956;7.002;2023-05-07T02:11:11;16.10;99.90
5960;DHT22;3006;50.956;7.002;2023-05-07T02:13:39;16.00;99.90
5960;DHT22;3006;50.956;7.002;2023-05-07T02:16:07;16.10;99.90
5960;DHT22;3006;50.956;7.002;2023-05-07T02:18:35;16.00;99.90
5960;DHT22;3006;50.956;7.002;2023-05-07T02:21:03;16.00;99.90
5960;DHT22;3006;50.956;7.002;2023-05-07T02:23:32;16.00;99.90
5960;DHT22;3006;50.956;7.002;2023-05-07T02:26:01;15.90;99.90
5960;DHT22;3006;50.956;7.002;2023-05-07T02:28:31;15.90;99.90
5960;DHT22;3006;50.956;7.002;2023-05-07T02:31:02;15.90;99.90
5960;DHT22;3006;50.956;7.002;2023-05-07T02:33:31;15.80;99.90
5960;DHT22;3006;50.956;7.002;2023-05-07T02:36:06;15.80;99.90
5960;DHT22;3006;50.956;7.002;2023-05-07T02:38:37;15.80;99.90
5960;DHT22;3006;50.956;7.002;2023-05-07T02:41:05;15.80;99.90
5960;DHT22;3006;50.956;7.002;2023-05-07T02:43:34;15.80;99.90
5960;DHT22;3006;50.956;7.002;2023-05-07T02:46:03;15.80;99.90
5960;DHT22;3006;50.956;7.002;2023-05-07T02:48:34;15.70;99.90
5960;DHT22;3006;50.956;7.002;2023-05-07T02:51:03;15.70;99.90
5960;DHT22;3006;50.956;7.002;2023-05-07T02:53:34;15.80;99.90
5960;DHT22;3006;50.956;7.002;2023-05-07T02:56:02;15.70;99.90
5960;DHT22;3006;50.956;7.002;2023-05-07T02:58:30;15.60;99.90
5960;DHT22;3006;50.956;7.002;2023-05-07T03:01:01;15.60;99.90
5960;DHT22;3006;50.956;7.002;2023-05-07T03:03:50;15.60;99.90
5960;DHT22;3006;50.956;7.002;2023-05-07T03:06:18;15.70;99.90
5960;DHT22;3006;50.956;7.002;2023-05-07T03:08:46;15.60;99.90
5960;DHT22;3006;50.956;7.002;2023-05-07T03:11:14;15.60;99.90
5960;DHT22;3006;50.956;7.002;2023-05-07T03:13:42;15.60;99.90
5960;DHT22;3006;50.956;7.002;2023-05-07T03:16:12;15.50;99.90
5960;DHT22;3006;50.956;7.002;2023-05-07T03:18:40;15.50;99.90
5960;DHT22;3006;50.956;7.002;2023-05-07T03:21:08;15.60;99.90
5960;DHT22;3006;50.956;7.002;2023-05-07T03:23:36;15.50;99.90
5960;DHT22;3006;50.956;7.002;2023-05-07T03:26:04;15.50;99.90
5960;DHT22;3006;50.956;7.002;2023-05-07T03:28:32;15.50;99.90
5960;DHT22;3006;50.956;7.002;2023-05-07T03:31:03;15.50;99.90
5960;DHT22;3006;50.956;7.002;2023-05-07T03:33:34;15.50;99.90
5960;DHT22;3006;50.956;7.002;2023-05-07T03:36:02;15.50;99.90
5960;DHT22;3006;50.956;7.002;2023-05-07T03:38:31;15.50;99.90
5960;DHT22;3006;50.956;7.002;2023-05-07T03:40:59;15.50;99.90
5960;DHT22;3006;50.956;7.002;2023-05-07T03:43:28;15.50;99.90
5960;DHT22;3006;50.956;7.002;2023-05-07T03:46:02;15.40;99.90
5960;DHT22;3006;50.956;7.002;2023-05-07T03:48:30;15.40;99.90
5960;DHT22;3006;50.956;7.002;2023-05-07T03:51:00;15.30;99.90
5960;DHT22;3006;50.956;7.002;2023-05-07T03:53:31;15.30;99.90
5960;DHT22;3006;50.956;7.002;2023-05-07T03:56:00;15.30;99.90
5960;DHT22;3006;50.956;7.002;2023-05-07T03:58:31;15.30;99.90
5960;DHT22;3006;50.956;7.002;2023-05-07T04:01:04;15.30;99.90
5960;DHT22;3006;50.956;7.002;2023-05-07T04:03:34;15.30;99.90
5960;DHT22;3006;50.956;7.002;2023-05-07T04:06:04;15.30;99.90
5960;DHT22;3006;50.956;7.002;2023-05-07T04:08:34;15.30;99.90
5960;DHT22;3006;50.956;7.002;2023-05-07T04:11:03;15.30;99.90
5960;DHT22;3006;50.956;7.002;2023-05-07T04:13:33;15.30;99.90
5960;DHT22;3006;50.956;7.002;2023-05-07T04:16:03;15.20;99.90
5960;DHT22;3006;50.956;7.002;2023-05-07T04:18:34;15.30;99.90
5960;DHT22;3006;50.956;7.002;2023-05-07T04:21:03;15.40;99.90
5960;DHT22;3006;50.956;7.002;2023-05-07T04:23:34;15.40;99.90
5960;DHT22;3006;50.956;7.002;2023-05-07T04:26:07;15.40;99.90
5960;DHT22;3006;50.956;7.002;2023-05-07T04:28:39;15.40;99.90
5960;DHT22;3006;50.956;7.002;2023-05-07T04:31:07;15.40;99.90
5960;DHT22;3006;50.956;7.002;2023-05-07T04:33:37;15.40;99.90
5960;DHT22;3006;50.956;7.002;2023-05-07T04:36:09;15.30;99.90
5960;DHT22;3006;50.956;7.002;2023-05-07T04:38:44;15.40;99.90
5960;DHT22;3006;50.956;7.002;2023-05-07T04:41:13;15.40;99.90
5960;DHT22;3006;50.956;7.002;2023-05-07T04:43:42;15.50;99.90
5960;DHT22;3006;50.956;7.002;2023-05-07T04:46:13;15.50;99.90
5960;DHT22;3006;50.956;7.002;2023-05-07T04:48:42;15.60;99.90
5960;DHT22;3006;50.956;7.002;2023-05-07T04:51:12;15.60;99.90
5960;DHT22;3006;50.956;7.002;2023-05-07T04:53:40;15.60;99.90
5960;DHT22;3006;50.956;7.002;2023-05-07T04:56:09;15.60;99.90
5960;DHT22;3006;50.956;7.002;2023-05-07T04:58:41;15.60;99.90
5960;DHT22;3006;50.956;7.002;2023-05-07T05:01:10;15.60;99.90
5960;DHT22;3006;50.956;7.002;2023-05-07T05:03:38;15.60;99.90
5960;DHT22;3006;50.956;7.002;2023-05-07T05:06:07;15.70;99.90
5960;DHT22;3006;50.956;7.002;2023-05-07T05:08:37;15.70;99.90
5960;DHT22;3006;50.956;7.002;2023-05-07T05:11:05;15.70;99.90
5960;DHT22;3006;50.956;7.002;2023-05-07T05:13:35;15.70;99.90
5960;DHT22;3006;50.956;7.002;2023-05-07T05:16:11;15.70;99.90
5960;DHT22;3006;50.956;7.002;2023-05-07T05:18:40;15.70;99.90
5960;DHT22;3006;50.956;7.002;2023-05-07T05:21:10;15.70;99.90
5960;DHT22;3006;50.956;7.002;2023-05-07T05:23:41;15.70;99.90
5960;DHT22;3006;50.956;7.002;2023-05-07T05:26:10;15.70;99.90
5960;DHT22;3006;50.956;7.002;2023-05-07T05:28:38;15.80;99.90
5960;DHT22;3006;50.956;7.002;2023-05-07T05:31:07;15.80;99.90
5960;DHT22;3006;50.956;7.002;2023-05-07T05:33:36;15.80;99.90
5960;DHT22;3006;50.956;7.002;2023-05-07T05:36:05;15.80;99.90
5960;DHT22;3006;50.956;7.002;2023-05-07T05:38:34;15.80;99.90
5960;DHT22;3006;50.956;7.002;2023-05-07T05:41:04;15.80;99.90
5960;DHT22;3006;50.956;7.002;2023-05-07T05:43:33;15.90;99.90
5960;DHT22;3006;50.956;7.002;2023-05-07T05:46:01;15.90;99.90
5960;DHT22;3006;50.956;7.002;2023-05-07T05:48:31;16.00;99.90
5960;DHT22;3006;50.956;7.002;2023-05-07T05:51:01;16.00;99.90
5960;DHT22;3006;50.956;7.002;2023-05-07T05:53:29;16.00;99.90
5960;DHT22;3006;50.956;7.002;2023-05-07T05:55:57;16.00;99.90
5960;DHT22;3006;50.956;7.002;2023-05-07T05:58:27;16.00;99.90
5960;DHT22;3006;50.956;7.002;2023-05-07T06:01:00;16.10;99.90
5960;DHT22;3006;50.956;7.002;2023-05-07T06:03:29;16.10;99.90
5960;DHT22;3006;50.956;7.002;2023-05-07T06:06:01;16.10;99.90
5960;DHT22;3006;50.956;7.002;2023-05-07T06:08:30;16.20;99.90
5960;DHT22;3006;50.956;7.002;2023-05-07T06:10:59;16.20;99.90
5960;DHT22;3006;50.956;7.002;2023-05-07T06:13:32;16.20;99.90
5960;DHT22;3006;50.956;7.002;2023-05-07T06:16:00;16.20;99.90
5960;DHT22;3006;50.956;7.002;2023-05-07T06:18:29;16.20;99.90
5960;DHT22;3006;50.956;7.002;2023-05-07T06:20:58;16.30;99.90
5960;DHT22;3006;50.956;7.002;2023-05-07T06:23:29;16.30;99.90
5960;DHT22;3006;50.956;7.002;2023-05-07T06:25:59;16.40;99.90
5960;DHT22;3006;50.956;7.002;2023-05-07T06:28:33;16.40;99.90
5960;DHT22;3006;50.956;7.002;2023-05-07T06:31:12;16.50;99.90
5960;DHT22;3006;50.956;7.002;2023-05-07T06:33:43;16.50;99.90
5960;DHT22;3006;50.956;7.002;2023-05-07T06:36:12;16.60;99.90
5960;DHT22;3006;50.956;7.002;2023-05-07T06:38:42;16.60;99.90
5960;DHT22;3006;50.956;7.002;2023-05-07T06:41:10;16.70;99.90
5960;DHT22;3006;50.956;7.002;2023-05-07T06:43:40;16.80;99.90
5960;DHT22;3006;50.956;7.002;2023-05-07T06:46:31;16.80;99.90
5960;DHT22;3006;50.956;7.002;2023-05-07T06:48:59;16.80;99.90
5960;DHT22;3006;50.956;7.002;2023-05-07T06:51:28;16.90;99.90
5960;DHT22;3006;50.956;7.002;2023-05-07T06:54:00;16.90;99.90
5960;DHT22;3006;50.956;7.002;2023-05-07T06:56:32;17.00;99.90
5960;DHT22;3006;50.956;7.002;2023-05-07T06:59:03;17.00;99.90
5960;DHT22;3006;50.956;7.002;2023-05-07T07:01:35;17.10;99.90
5960;DHT22;3006;50.956;7.002;2023-05-07T07:04:05;17.10;99.90
5960;DHT22;3006;50.956;7.002;2023-05-07T07:06:34;17.20;99.90
5960;DHT22;3006;50.956;7.002;2023-05-07T07:09:07;17.20;99.90
5960;DHT22;3006;50.956;7.002;2023-05-07T07:11:35;17.30;99.90
5960;DHT22;3006;50.956;7.002;2023-05-07T07:14:05;17.30;99.90
5960;DHT22;3006;50.956;7.002;2023-05-07T07:16:40;17.40;99.90
5960;DHT22;3006;50.956;7.002;2023-05-07T07:19:08;17.40;99.90
5960;DHT22;3006;50.956;7.002;2023-05-07T07:21:36;17.50;99.90
5960;DHT22;3006;50.956;7.002;2023-05-07T07:24:04;17.50;99.90
5960;DHT22;3006;50.956;7.002;2023-05-07T07:26:32;17.70;99.90
5960;DHT22;3006;50.956;7.002;2023-05-07T07:29:01;17.70;99.90
5960;DHT22;3006;50.956;7.002;2023-05-07T07:31:30;17.80;99.90
5960;DHT22;3006;50.956;7.002;2023-05-07T07:33:58;17.80;99.90
5960;DHT22;3006;50.956;7.002;2023-05-07T07:36:26;17.90;99.90
5960;DHT22;3006;50.956;7.002;2023-05-07T07:39:12;17.90;99.90
5960;DHT22;3006;50.956;7.002;2023-05-07T07:41:41;18.00;99.90
5960;DHT22;3006;50.956;7.002;2023-05-07T07:44:09;18.00;99.90
5960;DHT22;3006;50.956;7.002;2023-05-07T07:46:45;18.00;99.90
5960;DHT22;3006;50.956;7.002;2023-05-07T07:49:14;18.10;99.90
5960;DHT22;3006;50.956;7.002;2023-05-07T07:51:43;18.10;99.90
5960;DHT22;3006;50.956;7.002;2023-05-07T07:54:12;18.20;99.90
5960;DHT22;3006;50.956;7.002;2023-05-07T07:56:41;18.30;99.90
5960;DHT22;3006;50.956;7.002;2023-05-07T07:59:11;18.40;99.90
5960;DHT22;3006;50.956;7.002;2023-05-07T08:01:40;18.50;99.90
5960;DHT22;3006;50.956;7.002;2023-05-07T08:04:10;18.60;99.90
5960;DHT22;3006;50.956;7.002;2023-05-07T08:06:41;18.70;99.90
5960;DHT22;3006;50.956;7.002;2023-05-07T08:09:09;18.70;99.90
5960;DHT22;3006;50.956;7.002;2023-05-07T08:11:40;18.80;99.90
5960;DHT22;3006;50.956;7.002;2023-05-07T08:14:09;18.80;99.90
5960;DHT22;3006;50.956;7.002;2023-05-07T08:16:37;18.90;99.90
5960;DHT22;3006;50.956;7.002;2023-05-07T08:19:07;19.00;99.90
5960;DHT22;3006;50.956;7.002;2023-05-07T08:21:39;19.00;99.90
5960;DHT22;3006;50.956;7.002;2023-05-07T08:24:09;19.00;99.90
5960;DHT22;3006;50.956;7.002;2023-05-07T08:26:39;19.10;99.90
5960;DHT22;3006;50.956;7.002;2023-05-07T08:29:09;19.20;99.90
5960;DHT22;3006;50.956;7.002;2023-05-07T08:31:37;19.20;99.90
5960;DHT22;3006;50.956;7.002;2023-05-07T08:34:08;19.30;99.90
5960;DHT22;3006;50.956;7.002;2023-05-07T08:36:42;19.30;99.90
5960;DHT22;3006;50.956;7.002;2023-05-07T08:39:14;19.30;99.90
5960;DHT22;3006;50.956;7.002;2023-05-07T08:41:45;19.30;99.90
5960;DHT22;3006;50.956;7.002;2023-05-07T08:44:13;19.40;99.90
5960;DHT22;3006;50.956;7.002;2023-05-07T08:46:45;19.50;99.90
5960;DHT22;3006;50.956;7.002;2023-05-07T08:49:17;19.40;99.90
5960;DHT22;3006;50.956;7.002;2023-05-07T08:51:46;19.40;99.90
5960;DHT22;3006;50.956;7.002;2023-05-07T08:54:16;19.40;99.90
5960;DHT22;3006;50.956;7.002;2023-05-07T08:56:45;19.40;99.90
5960;DHT22;3006;50.956;7.002;2023-05-07T08:59:13;19.50;99.90
5960;DHT22;3006;50.956;7.002;2023-05-07T09:01:43;19.50;99.90
5960;DHT22;3006;50.956;7.002;2023-05-07T09:04:12;19.50;99.90
5960;DHT22;3006;50.956;7.002;2023-05-07T09:06:41;19.50;99.90
5960;DHT22;3006;50.956;7.002;2023-05-07T09:09:17;19.50;99.90
5960;DHT22;3006;50.956;7.002;2023-05-07T09:11:46;19.60;99.90
5960;DHT22;3006;50.956;7.002;2023-05-07T09:14:21;19.60;99.90
5960;DHT22;3006;50.956;7.002;2023-05-07T09:16:52;19.70;99.90
5960;DHT22;3006;50.956;7.002;2023-05-07T09:19:22;19.80;99.90
5960;DHT22;3006;50.956;7.002;2023-05-07T09:21:58;19.90;99.90
5960;DHT22;3006;50.956;7.002;2023-05-07T09:24:27;20.00;99.90
5960;DHT22;3006;50.956;7.002;2023-05-07T09:27:02;20.00;99.90
5960;DHT22;3006;50.956;7.002;2023-05-07T09:29:31;20.00;99.90
5960;DHT22;3006;50.956;7.002;2023-05-07T09:32:04;20.10;99.90
5960;DHT22;3006;50.956;7.002;2023-05-07T09:34:34;20.00;99.90
5960;DHT22;3006;50.956;7.002;2023-05-07T09:37:04;20.10;99.90
5960;DHT22;3006;50.956;7.002;2023-05-07T09:39:41;20.10;99.90
5960;DHT22;3006;50.956;7.002;2023-05-07T09:42:10;20.10;99.90
5960;DHT22;3006;50.956;7.002;2023-05-07T09:44:40;20.20;99.90
5960;DHT22;3006;50.956;7.002;2023-05-07T09:47:15;20.20;99.90
5960;DHT22;3006;50.956;7.002;2023-05-07T09:49:50;20.30;99.90
5960;DHT22;3006;50.956;7.002;2023-05-07T09:52:22;20.40;99.90
5960;DHT22;3006;50.956;7.002;2023-05-07T09:54:55;20.50;99.90
5960;DHT22;3006;50.956;7.002;2023-05-07T09:57:29;20.60;99.90
5960;DHT22;3006;50.956;7.002;2023-05-07T10:00:02;20.60;99.90
5960;DHT22;3006;50.956;7.002;2023-05-07T10:02:47;20.70;99.90
5960;DHT22;3006;50.956;7.002;2023-05-07T10:05:19;20.70;99.90
5960;DHT22;3006;50.956;7.002;2023-05-07T10:07:51;20.80;99.90
5960;DHT22;3006;50.956;7.002;2023-05-07T10:10:24;20.90;99.90
5960;DHT22;3006;50.956;7.002;2023-05-07T10:12:53;20.90;99.90
5960;DHT22;3006;50.956;7.002;2023-05-07T10:15:29;20.90;99.90
5960;DHT22;3006;50.956;7.002;2023-05-07T10:17:59;20.90;99.90
5960;DHT22;3006;50.956;7.002;2023-05-07T10:20:29;21.00;99.90
5960;DHT22;3006;50.956;7.002;2023-05-07T10:22:58;21.00;99.90
5960;DHT22;3006;50.956;7.002;2023-05-07T10:25:36;21.00;99.90
5960;DHT22;3006;50.956;7.002;2023-05-07T10:28:12;21.00;99.90
5960;DHT22;3006;50.956;7.002;2023-05-07T10:30:51;21.00;99.90
5960;DHT22;3006;50.956;7.002;2023-05-07T10:33:27;21.10;99.90
5960;DHT22;3006;50.956;7.002;2023-05-07T10:35:59;21.20;99.90
5960;DHT22;3006;50.956;7.002;2023-05-07T10:38:30;21.30;99.90
5960;DHT22;3006;50.956;7.002;2023-05-07T10:41:01;21.20;99.90
5960;DHT22;3006;50.956;7.002;2023-05-07T10:43:41;21.20;99.90
5960;DHT22;3006;50.956;7.002;2023-05-07T10:46:17;21.30;99.90
5960;DHT22;3006;50.956;7.002;2023-05-07T10:49:09;21.40;99.90
5960;DHT22;3006;50.956;7.002;2023-05-07T10:52:14;21.40;99.90
5960;DHT22;3006;50.956;7.002;2023-05-07T10:55:20;21.50;99.90
5960;DHT22;3006;50.956;7.002;2023-05-07T10:58:27;21.60;99.90
5960;DHT22;3006;50.956;7.002;2023-05-07T11:01:50;21.70;99.90
5960;DHT22;3006;50.956;7.002;2023-05-07T11:04:25;21.70;99.90
5960;DHT22;3006;50.956;7.002;2023-05-07T11:07:25;21.80;99.90
5960;DHT22;3006;50.956;7.002;2023-05-07T11:10:06;22.00;99.90
5960;DHT22;3006;50.956;7.002;2023-05-07T11:12:54;22.10;99.90
5960;DHT22;3006;50.956;7.002;2023-05-07T11:15:43;22.20;99.90
5960;DHT22;3006;50.956;7.002;2023-05-07T11:18:20;22.30;99.90
5960;DHT22;3006;50.956;7.002;2023-05-07T11:20:53;22.40;99.90
5960;DHT22;3006;50.956;7.002;2023-05-07T11:24:09;22.40;99.90
5960;DHT22;3006;50.956;7.002;2023-05-07T11:26:48;22.50;99.90
5960;DHT22;3006;50.956;7.002;2023-05-07T11:29:20;22.50;99.90
5960;DHT22;3006;50.956;7.002;2023-05-07T11:31:55;22.60;99.90
5960;DHT22;3006;50.956;7.002;2023-05-07T11:34:30;22.70;99.90
5960;DHT22;3006;50.956;7.002;2023-05-07T11:36:59;22.70;99.90
5960;DHT22;3006;50.956;7.002;2023-05-07T11:39:40;22.60;99.90
5960;DHT22;3006;50.956;7.002;2023-05-07T11:42:25;22.50;99.90
5960;DHT22;3006;50.956;7.002;2023-05-07T11:44:53;22.50;99.90
5960;DHT22;3006;50.956;7.002;2023-05-07T11:47:24;22.50;99.90
5960;DHT22;3006;50.956;7.002;2023-05-07T11:49:53;22.50;99.90
5960;DHT22;3006;50.956;7.002;2023-05-07T11:52:23;22.40;99.90
5960;DHT22;3006;50.956;7.002;2023-05-07T11:54:51;22.40;99.90
5960;DHT22;3006;50.956;7.002;2023-05-07T11:57:20;22.30;99.90
5960;DHT22;3006;50.956;7.002;2023-05-07T11:59:53;22.30;99.90
5960;DHT22;3006;50.956;7.002;2023-05-07T12:02:22;22.20;99.90
5960;DHT22;3006;50.956;7.002;2023-05-07T12:04:52;22.20;99.90
5960;DHT22;3006;50.956;7.002;2023-05-07T12:07:21;22.10;99.90
5960;DHT22;3006;50.956;7.002;2023-05-07T12:09:50;22.10;99.90
5960;DHT22;3006;50.956;7.002;2023-05-07T12:12:18;22.10;99.90
5960;DHT22;3006;50.956;7.002;2023-05-07T12:14:46;22.10;99.90
5960;DHT22;3006;50.956;7.002;2023-05-07T12:17:14;22.10;99.90
5960;DHT22;3006;50.956;7.002;2023-05-07T12:19:45;22.10;99.90
5960;DHT22;3006;50.956;7.002;2023-05-07T12:22:13;22.20;99.90
5960;DHT22;3006;50.956;7.002;2023-05-07T12:24:43;22.10;99.90
5960;DHT22;3006;50.956;7.002;2023-05-07T12:27:11;22.20;99.90
5960;DHT22;3006;50.956;7.002;2023-05-07T12:29:44;22.20;99.90
5960;DHT22;3006;50.956;7.002;2023-05-07T12:32:13;22.20;99.90
5960;DHT22;3006;50.956;7.002;2023-05-07T12:34:44;22.20;99.90
5960;DHT22;3006;50.956;7.002;2023-05-07T12:37:13;22.30;99.90
5960;DHT22;3006;50.956;7.002;2023-05-07T12:39:44;22.30;99.90
5960;DHT22;3006;50.956;7.002;2023-05-07T12:42:15;22.30;99.90
5960;DHT22;3006;50.956;7.002;2023-05-07T12:44:46;22.30;99.90
5960;DHT22;3006;50.956;7.002;2023-05-07T12:47:15;22.20;99.90
5960;DHT22;3006;50.956;7.002;2023-05-07T12:49:44;22.20;99.90
5960;DHT22;3006;50.956;7.002;2023-05-07T12:52:13;22.10;99.90
5960;DHT22;3006;50.956;7.002;2023-05-07T12:54:41;22.10;99.90
5960;DHT22;3006;50.956;7.002;2023-05-07T12:57:10;22.00;99.90
5960;DHT22;3006;50.956;7.002;2023-05-07T12:59:40;22.00;99.90
5960;DHT22;3006;50.956;7.002;2023-05-07T13:02:09;22.00;99.90
5960;DHT22;3006;50.956;7.002;2023-05-07T13:04:39;22.00;99.90
5960;DHT22;3006;50.956;7.002;2023-05-07T13:07:08;22.00;99.90
5960;DHT22;3006;50.956;7.002;2023-05-07T13:09:36;22.00;99.90
5960;DHT22;3006;50.956;7.002;2023-05-07T13:12:05;21.90;99.90
5960;DHT22;3006;50.956;7.002;2023-05-07T13:14:33;21.90;99.90
5960;DHT22;3006;50.956;7.002;2023-05-07T13:17:01;21.90;99.90
5960;DHT22;3006;50.956;7.002;2023-05-07T13:19:29;21.80;99.90
5960;DHT22;3006;50.956;7.002;2023-05-07T13:21:57;21.80;99.90
5960;DHT22;3006;50.956;7.002;2023-05-07T13:24:27;21.80;99.90
5960;DHT22;3006;50.956;7.002;2023-05-07T13:26:55;21.80;99.90
5960;DHT22;3006;50.956;7.002;2023-05-07T13:29:23;21.90;99.90
5960;DHT22;3006;50.956;7.002;2023-05-07T13:31:57;21.90;99.90
5960;DHT22;3006;50.956;7.002;2023-05-07T13:34:25;21.90;99.90
5960;DHT22;3006;50.956;7.002;2023-05-07T13:36:53;22.00;99.90
5960;DHT22;3006;50.956;7.002;2023-05-07T13:39:21;22.00;99.90
5960;DHT22;3006;50.956;7.002;2023-05-07T13:41:51;22.00;99.90
5960;DHT22;3006;50.956;7.002;2023-05-07T13:44:19;22.00;99.90
5960;DHT22;3006;50.956;7.002;2023-05-07T13:46:47;22.00;99.90
5960;DHT22;3006;50.956;7.002;2023-05-07T13:49:15;22.00;99.90
5960;DHT22;3006;50.956;7.002;2023-05-07T13:51:43;21.90;99.90
5960;DHT22;3006;50.956;7.002;2023-05-07T13:54:12;21.90;99.90
5960;DHT22;3006;50.956;7.002;2023-05-07T13:56:40;21.90;99.90
5960;DHT22;3006;50.956;7.002;2023-05-07T13:59:10;21.90;99.90
5960;DHT22;3006;50.956;7.002;2023-05-07T14:01:40;21.80;99.90
5960;DHT22;3006;50.956;7.002;2023-05-07T14:04:08;21.80;99.90
5960;DHT22;3006;50.956;7.002;2023-05-07T14:06:36;21.80;99.90
5960;DHT22;3006;50.956;7.002;2023-05-07T14:09:05;21.80;99.90
5960;DHT22;3006;50.956;7.002;2023-05-07T14:11:33;21.70;99.90
5960;DHT22;3006;50.956;7.002;2023-05-07T14:14:02;21.70;99.90
5960;DHT22;3006;50.956;7.002;2023-05-07T14:16:31;21.70;99.90
5960;DHT22;3006;50.956;7.002;2023-05-07T14:18:59;21.70;99.90
5960;DHT22;3006;50.956;7.002;2023-05-07T14:21:27;21.70;99.90
5960;DHT22;3006;50.956;7.002;2023-05-07T14:23:57;21.70;99.90
5960;DHT22;3006;50.956;7.002;2023-05-07T14:26:26;21.80;99.90
5960;DHT22;3006;50.956;7.002;2023-05-07T14:28:55;21.80;99.90
5960;DHT22;3006;50.956;7.002;2023-05-07T14:31:25;21.80;99.90
5960;DHT22;3006;50.956;7.002;2023-05-07T14:33:55;21.80;99.90
5960;DHT22;3006;50.956;7.002;2023-05-07T14:36:24;21.80;99.90
5960;DHT22;3006;50.956;7.002;2023-05-07T14:38:53;21.90;99.90
5960;DHT22;3006;50.956;7.002;2023-05-07T14:41:22;21.90;99.90
5960;DHT22;3006;50.956;7.002;2023-05-07T14:43:50;21.90;99.90
5960;DHT22;3006;50.956;7.002;2023-05-07T14:46:18;21.90;99.90
5960;DHT22;3006;50.956;7.002;2023-05-07T14:48:46;21.80;99.90
5960;DHT22;3006;50.956;7.002;2023-05-07T14:51:16;21.80;99.90
5960;DHT22;3006;50.956;7.002;2023-05-07T14:53:44;21.70;99.90
5960;DHT22;3006;50.956;7.002;2023-05-07T14:56:12;21.70;99.90
5960;DHT22;3006;50.956;7.002;2023-05-07T14:58:40;21.60;99.90
5960;DHT22;3006;50.956;7.002;2023-05-07T15:01:08;21.50;99.90
5960;DHT22;3006;50.956;7.002;2023-05-07T15:03:36;21.40;99.90
5960;DHT22;3006;50.956;7.002;2023-05-07T15:06:05;21.30;99.90
5960;DHT22;3006;50.956;7.002;2023-05-07T15:08:34;21.30;99.90
5960;DHT22;3006;50.956;7.002;2023-05-07T15:11:02;21.20;99.90
5960;DHT22;3006;50.956;7.002;2023-05-07T15:13:30;21.10;99.90
5960;DHT22;3006;50.956;7.002;2023-05-07T15:15:58;21.00;99.90
5960;DHT22;3006;50.956;7.002;2023-05-07T15:18:27;20.90;99.90
5960;DHT22;3006;50.956;7.002;2023-05-07T15:20:55;20.80;99.90
5960;DHT22;3006;50.956;7.002;2023-05-07T15:23:24;20.80;99.90
5960;DHT22;3006;50.956;7.002;2023-05-07T15:25:54;20.80;99.90
5960;DHT22;3006;50.956;7.002;2023-05-07T15:28:22;20.70;99.90
5960;DHT22;3006;50.956;7.002;2023-05-07T15:30:53;20.80;99.90
5960;DHT22;3006;50.956;7.002;2023-05-07T15:33:22;20.80;99.90
5960;DHT22;3006;50.956;7.002;2023-05-07T15:35:51;20.90;99.90
5960;DHT22;3006;50.956;7.002;2023-05-07T15:38:19;21.00;99.90
5960;DHT22;3006;50.956;7.002;2023-05-07T15:40:47;21.00;99.90
5960;DHT22;3006;50.956;7.002;2023-05-07T15:43:16;21.00;99.90
5960;DHT22;3006;50.956;7.002;2023-05-07T15:45:44;21.00;99.90
5960;DHT22;3006;50.956;7.002;2023-05-07T15:48:12;20.90;99.90
5960;DHT22;3006;50.956;7.002;2023-05-07T15:50:40;20.90;99.90
5960;DHT22;3006;50.956;7.002;2023-05-07T15:53:09;20.80;99.90
5960;DHT22;3006;50.956;7.002;2023-05-07T15:55:40;20.80;99.90
5960;DHT22;3006;50.956;7.002;2023-05-07T15:58:08;20.70;99.90
5960;DHT22;3006;50.956;7.002;2023-05-07T16:00:38;20.70;99.90
5960;DHT22;3006;50.956;7.002;2023-05-07T16:03:07;20.70;99.90
5960;DHT22;3006;50.956;7.002;2023-05-07T16:05:36;20.70;99.90
5960;DHT22;3006;50.956;7.002;2023-05-07T16:08:04;20.70;99.90
5960;DHT22;3006;50.956;7.002;2023-05-07T16:10:32;20.70;99.90
5960;DHT22;3006;50.956;7.002;2023-05-07T16:13:00;20.70;99.90
5960;DHT22;3006;50.956;7.002;2023-05-07T16:15:28;20.70;99.90
5960;DHT22;3006;50.956;7.002;2023-05-07T16:17:58;20.60;99.90
5960;DHT22;3006;50.956;7.002;2023-05-07T16:20:27;20.70;99.90
5960;DHT22;3006;50.956;7.002;2023-05-07T16:22:56;20.70;99.90
5960;DHT22;3006;50.956;7.002;2023-05-07T16:25:24;20.80;99.90